Time,TemperatureF,DewpointF,PressureIn,WindDirection,WindDirectionDegrees,WindSpeedMPH,WindSpeedGustMPH,Humidity,HourlyPrecipIn,Conditions,Clouds,dailyrainin,SoftwareType,DateUTC
2013-06-05 00:00:00,58.6,52.5,30.14,NE,45,0.0,0.0,80,0.00,,CLR,0.00,VWS V14.01,2013-06-05 04:00:00,
2013-06-05 00:30:00,58.1,52.0,30.14,NE,45,0.0,0.0,80,0.00,,CLR,0.00,VWS V14.01,2013-06-05 04:30:00,
2013-06-05 01:00:00,57.2,52.4,30.13,NE,45,0.0,0.0,84,0.00,,CLR,0.00,VWS V14.01,2013-06-05 05:00:00,
2013-06-05 01:30:00,56.9,53.1,30.13,NE,45,0.0,0.0,87,0.00,,CLR,0.00,VWS V14.01,2013-06-05 05:30:00,
2013-06-05 02:00:00,57.5,53.3,30.13,NE,45,0.0,0.0,86,0.00,,CLR,0.00,VWS V14.01,2013-06-05 06:00:00,
2013-06-05 02:30:00,58.1,53.6,30.13,NE,45,0.0,0.0,85,0.00,,BKN055,0.00,VWS V14.01,2013-06-05 06:30:00,
2013-06-05 03:00:00,58.9,54.7,30.12,NE,45,0.0,0.0,86,0.00,,BKN055,0.00,VWS V14.01,2013-06-05 07:00:00,
2013-06-05 03:30:00,59.0,54.8,30.13,NE,45,0.0,0.0,86,0.00,,CLR,0.00,VWS V14.01,2013-06-05 07:30:00,
2013-06-05 04:00:00,59.5,55.6,30.13,NE,45,0.0,0.0,87,0.00,,CLR,0.00,VWS V14.01,2013-06-05 08:00:00,
2013-06-05 04:30:00,59.5,55.6,30.13,NE,45,0.0,0.0,87,0.00,,OVC060,0.00,VWS V14.01,2013-06-05 08:30:00,
2013-06-05 05:00:00,59.5,55.3,30.13,NE,45,0.0,0.0,86,0.00,,OVC060,0.00,VWS V14.01,2013-06-05 09:00:00,
2013-06-05 05:30:00,59.5,55.6,30.15,NE,45,0.0,0.0,87,0.00,,OVC045,0.00,VWS V14.01,2013-06-05 09:30:00,
2013-06-05 06:00:00,59.6,55.1,30.16,NE,45,0.0,0.0,85,0.00,,OVC045,0.00,VWS V14.01,2013-06-05 10:00:00,
2013-06-05 06:30:00,59.6,55.4,30.16,NE,45,0.0,0.0,86,0.00,,OVC070,0.00,VWS V14.01,2013-06-05 10:30:00,
2013-06-05 07:00:00,59.6,56.0,30.16,NE,45,0.0,0.0,88,0.00,,OVC070,0.00,VWS V14.01,2013-06-05 11:00:00,
2013-06-05 07:30:00,61.5,57.9,30.17,NE,45,0.0,0.0,88,0.00,,OVC070,0.00,VWS V14.01,2013-06-05 11:30:00,
2013-06-05 08:00:00,64.8,58.1,30.17,NE,47,0.0,0.0,79,0.00,,OVC070,0.00,VWS V14.01,2013-06-05 12:00:00,
2013-06-05 08:30:00,67.6,58.3,30.17,NE,47,0.0,0.0,72,0.00,,OVC070,0.00,VWS V14.01,2013-06-05 12:30:00,
2013-06-05 09:00:00,69.8,58.8,30.17,SE,145,0.0,2.0,68,0.00,,OVC070,0.00,VWS V14.01,2013-06-05 13:00:00,
2013-06-05 09:30:00,71.5,58.3,30.16,SW,223,1.0,5.0,63,0.00,,BKN047,0.00,VWS V14.01,2013-06-05 13:30:00,
2013-06-05 10:00:00,73.2,59.0,30.16,SW,216,1.0,3.0,61,0.00,,BKN047,0.00,VWS V14.01,2013-06-05 14:00:00,
2013-06-05 10:30:00,73.5,58.8,30.16,South,191,0.0,6.0,60,0.00,,CLR,0.00,VWS V14.01,2013-06-05 14:30:00,
2013-06-05 11:00:00,74.6,59.8,30.16,WSW,243,0.0,7.0,60,0.00,,CLR,0.00,VWS V14.01,2013-06-05 15:00:00,
2013-06-05 11:30:00,75.1,57.8,30.15,SSW,193,2.0,7.0,55,0.00,,CLR,0.00,VWS V14.01,2013-06-05 15:30:00,
2013-06-05 12:00:00,76.3,60.5,30.15,WSW,254,1.0,5.0,58,0.00,,CLR,0.00,VWS V14.01,2013-06-05 16:00:00,
2013-06-05 12:30:00,77.0,59.6,30.13,SSW,208,0.0,7.0,55,0.00,,SCT046,0.00,VWS V14.01,2013-06-05 16:30:00,
2013-06-05 13:00:00,77.7,58.7,30.12,ESE,112,0.0,5.0,52,0.00,,SCT046,0.00,VWS V14.01,2013-06-05 17:00:00,
2013-06-05 13:30:00,78.8,58.6,30.11,WNW,302,0.0,6.0,50,0.00,,SCT048,0.00,VWS V14.01,2013-06-05 17:30:00,
2013-06-05 14:00:00,78.6,59.0,30.10,South,176,0.0,7.0,51,0.00,,SCT048,0.00,VWS V14.01,2013-06-05 18:00:00,
2013-06-05 14:30:00,80.7,63.0,30.09,SW,220,1.0,5.0,55,0.00,,SCT050,0.00,VWS V14.01,2013-06-05 18:30:00,
2013-06-05 15:00:00,79.8,61.2,30.09,SSW,213,1.0,5.0,53,0.00,,SCT050,0.00,VWS V14.01,2013-06-05 19:00:00,
2013-06-05 15:30:00,77.7,61.8,30.08,WSW,257,0.0,3.0,58,0.00,,BKN044,0.00,VWS V14.01,2013-06-05 19:30:00,
2013-06-05 16:00:00,77.9,61.5,30.08,ENE,71,0.0,3.0,57,0.00,,BKN044,0.00,VWS V14.01,2013-06-05 20:00:00,
2013-06-05 16:30:00,77.2,61.8,30.07,SW,216,3.0,3.0,59,0.00,,OVC046,0.00,VWS V14.01,2013-06-05 20:30:00,
2013-06-05 17:00:00,76.7,62.7,30.07,SSW,200,0.0,5.0,62,0.00,,OVC046,0.00,VWS V14.01,2013-06-05 21:00:00,
2013-06-05 17:30:00,76.0,63.4,30.07,SSW,202,0.0,1.0,65,0.00,,OVC055,0.00,VWS V14.01,2013-06-05 21:30:00,
2013-06-05 18:00:00,75.1,63.0,30.05,South,186,0.0,0.0,66,0.00,,OVC055,0.00,VWS V14.01,2013-06-05 22:00:00,
2013-06-05 18:30:00,76.5,60.2,30.05,ESE,103,0.0,3.0,57,0.00,,OVC060,0.00,VWS V14.01,2013-06-05 22:30:00,
2013-06-05 19:00:00,76.0,59.2,30.05,ESE,121,0.0,4.0,56,0.00,,OVC060,0.00,VWS V14.01,2013-06-05 23:00:00,
2013-06-05 19:30:00,74.6,59.8,30.05,ESE,121,0.0,1.0,60,0.00,,FEW080,0.00,VWS V14.01,2013-06-05 23:30:00,
2013-06-05 20:00:00,74.2,61.2,30.05,ESE,121,0.0,0.0,64,0.00,,FEW080,0.00,VWS V14.01,2013-06-06 00:00:00,
2013-06-05 20:30:00,72.1,61.0,30.05,ESE,121,0.0,0.0,68,0.00,,CLR,0.00,VWS V14.01,2013-06-06 00:30:00,
2013-06-05 21:00:00,71.6,59.2,30.05,ESE,121,0.0,2.0,65,0.00,,CLR,0.00,VWS V14.01,2013-06-06 01:00:00,
2013-06-05 21:30:00,71.8,59.8,30.05,SE,134,0.0,1.0,66,0.00,,OVC060,0.00,VWS V14.01,2013-06-06 01:30:00,
2013-06-05 22:00:00,71.5,57.4,30.05,SSW,213,2.0,6.0,61,0.00,,OVC060,0.00,VWS V14.01,2013-06-06 02:00:00,
2013-06-05 22:30:00,70.6,55.6,30.06,South,175,0.0,11.0,59,0.00,,OVC070,0.00,VWS V14.01,2013-06-06 02:30:00,
2013-06-05 23:00:00,69.1,54.7,30.06,WSW,246,0.0,5.0,60,0.00,,OVC070,0.00,VWS V14.01,2013-06-06 03:00:00,
2013-06-05 23:30:00,68.3,54.3,30.06,SW,222,3.0,9.0,61,0.00,,OVC065,0.00,VWS V14.01,2013-06-06 03:30:00,